KPDC

Details ICAO KPDC
Name Prairie Du Chien Muni
Region United States
Timezone America/Chicago (UTC-6.0)
Plans Departing 0
Arriving 1
Stats Elevation 661 ft / 201 m (AMSL)
Location 43.019540° -91.123822°
Runways 2
Magnetic Variation 1.304° W
Sunrise 2017-12-16 13:31:11 UTC / 2017-12-16 07:31:11 Local
Sunset 2017-12-16 22:32:05 UTC / 2017-12-16 16:32:05 Local
Advertisement - Login to hide

Runways

ID Width Length Bearing (true) Bearing (mag) Surface Threshold Offset Overrun Length
11 75 ft / 23 m 3,991 ft / 1,217 m 110.44° 111.74° Asphalt 0 ft / 0 m 0 ft / 0 m
14 75 ft / 23 m 4,999 ft / 1,524 m 140.10° 141.40° Asphalt 0 ft / 0 m 0 ft / 0 m
29 75 ft / 23 m 3,991 ft / 1,217 m 290.45° 291.75° Asphalt 0 ft / 0 m 0 ft / 0 m
32 75 ft / 23 m 4,999 ft / 1,524 m 320.11° 321.41° Asphalt 0 ft / 0 m 0 ft / 0 m

Map

Weather


0- 5 10 15 20 25 30 35+ Temperature / ° C

Clouds and Precipitation
Forecast for 2017-12-16 12:00 UTC. Updated 2 hours ago

Ground ~20,000 ft ~40,000 ft Winds

METAR

KPDC 160855Z AUTO 18005KT 10SM SCT075 03/M06 A2973 RMK AO2 T00291056

TAF

Not found

Frequencies

Recorded 119.92 MHz AWOS 3
Approach 133.95 MHz CHICAGO APP/DEP
Unicom 122.80 MHz CTAF/UNICOM
Warning: Do not use this data for real-world aviation or navigation. No guarantee of current accuracy is given.